createdAt,value
2023-05-09T00:00:20.817Z,51.19
2023-05-09T00:00:42.798Z,51.53
2023-05-09T00:01:10.919Z,51.53
2023-05-09T00:01:32.552Z,51.48
2023-05-09T00:01:55.331Z,51.70
2023-05-09T00:02:17.216Z,51.61
2023-05-09T00:02:38.997Z,51.54
2023-05-09T00:03:00.740Z,51.59
2023-05-09T00:03:24.626Z,51.39
2023-05-09T00:03:46.228Z,51.38
2023-05-09T00:04:07.831Z,51.41
2023-05-09T00:04:30.187Z,51.27
2023-05-09T00:04:51.924Z,51.59
2023-05-09T00:05:15.373Z,51.59
2023-05-09T00:05:37.242Z,51.57
2023-05-09T00:05:58.871Z,51.31
2023-05-09T00:06:20.597Z,51.22
2023-05-09T00:06:42.346Z,51.15
2023-05-09T00:07:04.960Z,51.24
2023-05-09T00:07:26.548Z,51.18
2023-05-09T00:07:48.244Z,51.65
2023-05-09T00:08:09.937Z,51.33
2023-05-09T00:08:31.515Z,51.43
2023-05-09T00:08:54.136Z,51.15
2023-05-09T00:09:15.813Z,51.35
2023-05-09T00:09:37.454Z,51.30
2023-05-09T00:09:59.523Z,51.77
2023-05-09T00:10:21.187Z,51.77
2023-05-09T00:10:43.777Z,51.44
2023-05-09T00:11:05.490Z,51.48
2023-05-09T00:12:04.501Z,51.72
2023-05-09T00:12:26.874Z,51.66
2023-05-09T00:12:50.052Z,51.49
2023-05-09T00:13:12.276Z,51.74
2023-05-09T00:13:37.474Z,51.48
2023-05-09T00:13:59.101Z,51.42
2023-05-09T00:14:21.834Z,51.54
2023-05-09T00:14:45.443Z,51.61
2023-05-09T00:15:08.267Z,51.58
2023-05-09T00:15:30.741Z,51.46
2023-05-09T00:15:53.933Z,51.48
2023-05-09T00:16:16.947Z,51.70
2023-05-09T00:16:38.665Z,51.50
2023-05-09T00:17:00.865Z,51.64
2023-05-09T00:17:23.983Z,51.85
2023-05-09T00:17:46.767Z,51.64
2023-05-09T00:18:08.463Z,51.70
2023-05-09T00:18:31.927Z,51.80
2023-05-09T00:18:53.672Z,51.79
2023-05-09T00:19:17.916Z,51.54
2023-05-09T00:19:40.502Z,51.73
2023-05-09T00:20:05.216Z,51.83
2023-05-09T00:20:27.204Z,51.85
2023-05-09T00:20:49.006Z,51.93
2023-05-09T00:21:13.358Z,51.84
2023-05-09T00:21:35.188Z,51.64
2023-05-09T00:21:56.871Z,51.51
2023-05-09T00:22:21.408Z,51.60
2023-05-09T00:22:44.179Z,51.67
2023-05-09T00:23:06.112Z,51.37
2023-05-09T00:23:28.965Z,51.45
2023-05-09T00:23:50.677Z,51.20
2023-05-09T00:24:13.359Z,51.19
2023-05-09T00:24:35.300Z,51.25
2023-05-09T00:24:57.117Z,51.37
2023-05-09T00:25:18.932Z,51.54
2023-05-09T00:25:40.751Z,51.78
2023-05-09T00:26:04.877Z,51.80
2023-05-09T00:26:28.974Z,51.77
2023-05-09T00:26:50.691Z,51.80
2023-05-09T00:27:12.403Z,51.55
2023-05-09T00:27:34.149Z,51.54
2023-05-09T00:27:56.820Z,51.52
2023-05-09T00:28:18.517Z,51.23
2023-05-09T00:28:40.505Z,51.29
2023-05-09T00:29:02.306Z,51.33
2023-05-09T00:29:24.110Z,51.43
2023-05-09T00:29:46.672Z,51.19
2023-05-09T00:30:09.187Z,51.45
2023-05-09T00:30:31.384Z,51.36
2023-05-09T00:30:53.082Z,51.48
2023-05-09T00:31:16.092Z,51.46
2023-05-09T00:31:38.869Z,51.73
2023-05-09T00:32:00.506Z,51.83
2023-05-09T00:32:22.346Z,51.78
2023-05-09T00:32:46.543Z,51.47
2023-05-09T00:33:08.322Z,51.54
2023-05-09T00:33:31.323Z,51.35
2023-05-09T00:33:54.278Z,51.45
2023-05-09T00:34:16.039Z,51.44
2023-05-09T00:34:39.960Z,51.49
2023-05-09T00:35:03.387Z,51.31
2023-05-09T00:35:25.050Z,51.59
2023-05-09T00:35:46.793Z,51.35
2023-05-09T00:36:08.645Z,51.28
2023-05-09T00:36:33.058Z,51.51
2023-05-09T00:36:55.675Z,51.54
2023-05-09T00:37:19.399Z,51.44
2023-05-09T00:37:41.023Z,51.65
2023-05-09T00:38:02.713Z,51.33
2023-05-09T00:38:24.427Z,51.59
2023-05-09T00:38:47.240Z,51.57
2023-05-09T00:39:09.842Z,51.53
2023-05-09T00:39:31.532Z,51.62
2023-05-09T00:39:53.865Z,51.66
2023-05-09T00:40:15.673Z,51.72
2023-05-09T00:40:38.513Z,51.78
2023-05-09T00:41:00.424Z,51.63
2023-05-09T00:41:22.089Z,52.08
2023-05-09T00:41:43.805Z,51.92
2023-05-09T00:42:06.630Z,52.10
2023-05-09T00:42:28.343Z,52.00
2023-05-09T00:42:49.988Z,52.01
2023-05-09T00:43:12.944Z,51.90
2023-05-09T00:43:43.865Z,52.02
2023-05-09T00:44:12.223Z,51.76
2023-05-09T00:44:38.799Z,51.83
2023-05-09T00:45:04.794Z,51.86
2023-05-09T00:45:32.683Z,52.06
2023-05-09T00:45:57.510Z,51.75
2023-05-09T00:46:21.391Z,51.91
2023-05-09T00:46:43.724Z,52.03
2023-05-09T00:47:09.101Z,52.03
2023-05-09T00:47:51.454Z,51.62
2023-05-09T00:48:14.579Z,51.96
2023-05-09T00:48:40.027Z,52.01
2023-05-09T00:49:04.368Z,51.96
2023-05-09T00:49:29.088Z,52.35
2023-05-09T00:49:59.694Z,52.27
2023-05-09T00:50:22.468Z,51.91
2023-05-09T00:50:44.924Z,51.83
2023-05-09T00:51:24.058Z,51.75
2023-05-09T00:51:50.965Z,51.71
2023-05-09T00:52:14.383Z,51.47
2023-05-09T00:52:45.519Z,51.68
2023-05-09T00:53:10.649Z,51.84
2023-05-09T00:53:33.478Z,51.70
2023-05-09T00:53:55.161Z,51.76
2023-05-09T00:54:16.878Z,51.67
2023-05-09T00:54:38.699Z,51.69
2023-05-09T00:55:02.020Z,51.67
2023-05-09T00:55:24.927Z,51.64
2023-05-09T00:55:46.824Z,51.55
2023-05-09T00:56:10.995Z,51.53
2023-05-09T00:56:32.727Z,51.82
2023-05-09T00:56:54.438Z,51.82
2023-05-09T00:57:18.413Z,52.10
2023-05-09T00:57:40.418Z,52.30
2023-05-09T00:58:03.074Z,52.30
2023-05-09T00:58:26.528Z,51.70
2023-05-09T00:58:48.265Z,51.75
2023-05-09T00:59:10.063Z,52.04
2023-05-09T00:59:31.745Z,51.80
2023-05-09T00:59:54.382Z,51.67
2023-05-09T01:00:17.184Z,51.75
2023-05-09T01:00:39.043Z,51.57
2023-05-09T01:01:02.264Z,51.55
2023-05-09T01:01:26.430Z,51.50
2023-05-09T01:01:48.205Z,51.66
2023-05-09T01:02:09.918Z,51.44
2023-05-09T01:02:33.336Z,51.27
2023-05-09T01:03:00.038Z,51.35
2023-05-09T01:03:22.366Z,51.74
2023-05-09T01:03:45.762Z,51.64
2023-05-09T01:04:07.898Z,51.63
2023-05-09T01:04:30.913Z,51.23
2023-05-09T01:04:53.628Z,51.62
2023-05-09T01:05:16.128Z,51.61
2023-05-09T01:05:52.110Z,51.43
2023-05-09T01:06:21.305Z,51.33
2023-05-09T01:06:52.429Z,51.46
2023-05-09T01:07:23.433Z,51.30
2023-05-09T01:08:05.439Z,51.37
2023-05-09T01:08:38.175Z,51.40
2023-05-09T01:09:05.344Z,51.48
2023-05-09T01:09:37.168Z,51.47
2023-05-09T01:10:07.969Z,51.31
2023-05-09T01:10:40.645Z,51.15
2023-05-09T01:11:09.534Z,51.72
2023-05-09T01:11:36.281Z,51.97
2023-05-09T01:12:30.975Z,51.59
2023-05-09T01:12:59.300Z,52.01
2023-05-09T01:13:28.111Z,51.60
2023-05-09T01:13:57.472Z,51.54
2023-05-09T01:14:44.978Z,51.43
2023-05-09T01:15:19.572Z,51.76
2023-05-09T01:15:52.757Z,52.05
2023-05-09T01:16:23.972Z,52.20
2023-05-09T01:16:57.215Z,52.00
2023-05-09T01:17:34.207Z,51.87
2023-05-09T01:18:01.180Z,52.02
2023-05-09T01:18:34.955Z,52.15
2023-05-09T01:19:08.354Z,51.85
2023-05-09T01:19:54.322Z,51.80
2023-05-09T01:20:29.080Z,51.77
2023-05-09T01:21:00.522Z,51.69
2023-05-09T01:21:31.180Z,51.70
2023-05-09T01:21:58.071Z,51.70
2023-05-09T01:22:25.577Z,51.76
2023-05-09T01:23:13.182Z,51.46
2023-05-09T01:24:06.256Z,51.63
2023-05-09T01:25:17.885Z,51.62
2023-05-09T01:25:59.137Z,51.65
2023-05-09T01:26:36.576Z,51.35
2023-05-09T01:27:21.916Z,51.96
2023-05-09T01:28:06.170Z,51.97
2023-05-09T01:28:53.213Z,52.14
2023-05-09T01:29:46.482Z,51.95
2023-05-09T01:30:12.072Z,51.64
2023-05-09T01:30:38.266Z,51.56
2023-05-09T01:31:05.278Z,51.72
2023-05-09T01:31:28.896Z,51.83
2023-05-09T01:31:54.975Z,52.02
2023-05-09T01:32:22.825Z,52.38
2023-05-09T01:32:57.845Z,52.36
2023-05-09T01:33:24.236Z,51.67
2023-05-09T01:33:52.793Z,51.60
2023-05-09T01:34:20.133Z,52.10
2023-05-09T01:34:44.773Z,52.12
2023-05-09T01:35:10.706Z,51.92
2023-05-09T01:35:36.131Z,51.90
2023-05-09T01:36:04.167Z,51.81
2023-05-09T01:36:30.170Z,51.59
2023-05-09T01:36:55.705Z,51.54
2023-05-09T01:37:22.481Z,51.31
2023-05-09T01:37:49.268Z,51.46
2023-05-09T01:38:15.708Z,51.12
2023-05-09T01:38:39.049Z,51.51
2023-05-09T01:39:04.528Z,51.63
2023-05-09T01:39:27.302Z,51.34
2023-05-09T01:39:54.134Z,51.70
2023-05-09T01:40:20.011Z,52.16
2023-05-09T01:40:42.554Z,52.14
2023-05-09T01:41:07.573Z,52.26
2023-05-09T01:41:34.225Z,52.02
2023-05-09T01:42:00.573Z,51.91
2023-05-09T01:42:26.142Z,51.85
2023-05-09T01:42:51.679Z,51.55
2023-05-09T01:43:15.974Z,51.68
2023-05-09T01:43:40.011Z,51.80
2023-05-09T01:44:06.278Z,51.83
2023-05-09T01:44:32.507Z,51.78
2023-05-09T01:44:57.036Z,51.60
2023-05-09T01:45:21.675Z,51.54
2023-05-09T01:45:46.001Z,51.84
2023-05-09T01:46:09.188Z,51.80
2023-05-09T01:46:31.197Z,51.45
2023-05-09T01:46:54.807Z,51.35
2023-05-09T01:47:19.263Z,51.46
2023-05-09T01:47:42.076Z,51.45
2023-05-09T01:48:06.733Z,51.38
2023-05-09T01:48:30.915Z,51.64
2023-05-09T01:48:54.700Z,51.72
2023-05-09T01:49:18.308Z,51.88
2023-05-09T01:49:41.546Z,51.79
2023-05-09T01:50:04.856Z,52.01
2023-05-09T01:50:29.324Z,51.91
2023-05-09T01:50:51.054Z,51.73
2023-05-09T01:51:15.125Z,51.68
2023-05-09T01:51:38.655Z,51.87
2023-05-09T01:52:03.824Z,51.93
2023-05-09T01:52:27.760Z,51.80
2023-05-09T01:52:53.314Z,51.92
2023-05-09T01:53:17.568Z,51.79
2023-05-09T01:53:41.009Z,51.96
2023-05-09T01:54:05.270Z,52.06
2023-05-09T01:54:28.165Z,51.90
2023-05-09T01:54:51.521Z,51.74
2023-05-09T01:55:15.500Z,51.37
2023-05-09T01:55:40.981Z,51.41
2023-05-09T01:56:05.443Z,51.63
2023-05-09T01:56:28.130Z,51.47
2023-05-09T01:56:50.832Z,51.61
2023-05-09T01:57:14.498Z,51.38
2023-05-09T01:57:38.433Z,51.54
2023-05-09T01:58:03.617Z,51.55
2023-05-09T01:58:27.067Z,51.74
2023-05-09T01:58:51.954Z,51.93
2023-05-09T01:59:16.228Z,51.79
2023-05-09T01:59:39.585Z,51.92
2023-05-09T02:00:03.824Z,51.72
2023-05-09T02:00:36.549Z,51.87
2023-05-09T02:00:59.374Z,52.04
2023-05-09T02:01:21.944Z,51.62
2023-05-09T02:01:44.500Z,52.01
2023-05-09T02:02:07.783Z,51.69
2023-05-09T02:02:30.983Z,51.38
2023-05-09T02:02:55.431Z,51.64
2023-05-09T02:03:17.358Z,51.41
2023-05-09T02:03:40.264Z,51.45
2023-05-09T02:04:04.438Z,50.94
2023-05-09T02:04:29.336Z,51.40
2023-05-09T02:04:54.245Z,51.39
2023-05-09T02:05:18.250Z,51.41
2023-05-09T02:05:41.889Z,51.48
2023-05-09T02:06:05.908Z,51.43
2023-05-09T02:06:32.163Z,51.37
2023-05-09T02:06:54.257Z,51.49
2023-05-09T02:07:18.220Z,51.67
2023-05-09T02:07:42.773Z,51.49
2023-05-09T02:08:06.656Z,51.32
2023-05-09T02:08:29.448Z,51.42
2023-05-09T02:08:51.436Z,51.66
2023-05-09T02:09:14.926Z,51.65
2023-05-09T02:09:36.934Z,51.60
2023-05-09T02:10:00.556Z,51.57
2023-05-09T02:10:22.962Z,51.74
2023-05-09T02:10:44.857Z,51.48
2023-05-09T02:11:08.349Z,51.51
2023-05-09T02:11:30.114Z,51.55
2023-05-09T02:11:51.806Z,51.47
2023-05-09T02:12:14.630Z,51.85
2023-05-09T02:12:36.384Z,51.79
2023-05-09T02:12:59.125Z,51.59
2023-05-09T02:13:20.895Z,51.45
2023-05-09T02:13:43.044Z,51.49
2023-05-09T02:14:04.729Z,51.32
2023-05-09T02:14:26.669Z,51.26
2023-05-09T02:14:49.327Z,51.31
2023-05-09T02:15:12.634Z,51.32
2023-05-09T02:15:37.609Z,51.25
2023-05-09T02:15:59.686Z,51.25
2023-05-09T02:16:22.579Z,51.11
2023-05-09T02:16:44.552Z,51.19
2023-05-09T02:17:07.158Z,51.21
2023-05-09T02:17:30.675Z,51.18
2023-05-09T02:17:53.384Z,51.37
2023-05-09T02:18:15.010Z,51.21
2023-05-09T02:18:37.237Z,50.94
2023-05-09T02:18:59.025Z,51.25
2023-05-09T02:19:21.646Z,51.46
2023-05-09T02:19:43.915Z,51.45
2023-05-09T02:20:09.802Z,51.60
2023-05-09T02:20:31.560Z,51.29
2023-05-09T02:20:54.373Z,51.09
2023-05-09T02:21:16.188Z,51.37
2023-05-09T02:21:39.358Z,51.54
2023-05-09T02:22:02.034Z,51.80
2023-05-09T02:22:24.023Z,51.66
2023-05-09T02:22:48.510Z,51.93
2023-05-09T02:23:10.412Z,51.78
2023-05-09T02:23:32.135Z,51.82
2023-05-09T02:23:53.822Z,51.69
2023-05-09T02:24:15.639Z,51.64
2023-05-09T02:24:38.443Z,51.68
2023-05-09T02:25:00.775Z,51.43
2023-05-09T02:25:23.313Z,51.57
2023-05-09T02:25:46.007Z,51.38
2023-05-09T02:26:08.159Z,51.25
2023-05-09T02:26:32.793Z,51.18
2023-05-09T02:26:55.302Z,51.23
2023-05-09T02:27:18.808Z,51.15
2023-05-09T02:27:41.698Z,51.17
2023-05-09T02:28:03.957Z,51.32
2023-05-09T02:28:29.369Z,51.50
2023-05-09T02:28:52.974Z,51.80
2023-05-09T02:29:19.567Z,51.84
2023-05-09T02:29:44.557Z,51.41
2023-05-09T02:30:11.031Z,51.39
2023-05-09T02:30:39.890Z,51.42
2023-05-09T02:31:06.357Z,51.84
2023-05-09T02:31:30.378Z,51.62
2023-05-09T02:31:53.803Z,51.53
2023-05-09T02:32:21.185Z,51.60
2023-05-09T02:32:45.039Z,51.73
2023-05-09T02:33:10.939Z,51.36
2023-05-09T02:33:39.485Z,51.18
2023-05-09T02:34:05.124Z,51.41
2023-05-09T02:34:27.280Z,51.15
2023-05-09T02:34:55.037Z,51.13
2023-05-09T02:35:18.600Z,51.30
2023-05-09T02:35:44.767Z,51.16
2023-05-09T02:36:09.948Z,51.29
2023-05-09T02:36:32.620Z,51.35
2023-05-09T02:36:55.412Z,51.25
2023-05-09T02:37:19.645Z,51.14
2023-05-09T02:37:41.668Z,51.22
2023-05-09T02:38:03.985Z,51.27
2023-05-09T02:38:27.185Z,51.15
2023-05-09T02:38:51.658Z,51.30
2023-05-09T02:39:13.562Z,51.86
2023-05-09T02:39:35.773Z,51.78
2023-05-09T02:39:58.570Z,51.85
2023-05-09T02:40:24.079Z,51.75
2023-05-09T02:40:47.600Z,51.67
2023-05-09T02:41:13.049Z,51.27
2023-05-09T02:41:34.859Z,51.72
2023-05-09T02:41:56.592Z,51.52
2023-05-09T02:42:22.295Z,51.50
2023-05-09T02:42:44.986Z,51.55
2023-05-09T02:43:06.713Z,51.41
2023-05-09T02:43:29.144Z,51.73
2023-05-09T02:43:51.856Z,51.67
2023-05-09T02:44:13.591Z,51.70
2023-05-09T02:44:35.293Z,51.95
2023-05-09T02:44:57.052Z,51.99
2023-05-09T02:45:20.452Z,51.79
2023-05-09T02:45:43.811Z,51.81
2023-05-09T02:46:05.582Z,51.92
2023-05-09T02:46:28.691Z,51.72
2023-05-09T02:46:51.522Z,51.57
2023-05-09T02:47:13.246Z,52.02
2023-05-09T02:47:34.976Z,51.46
2023-05-09T02:47:56.965Z,51.41
2023-05-09T02:48:18.822Z,51.70
2023-05-09T02:48:41.517Z,51.70
2023-05-09T02:49:03.171Z,51.51
2023-05-09T02:49:31.957Z,51.48
2023-05-09T02:49:56.921Z,51.69
2023-05-09T02:50:20.030Z,51.80
2023-05-09T02:50:43.485Z,51.76
2023-05-09T02:51:06.098Z,51.60
2023-05-09T02:51:27.748Z,51.82
2023-05-09T02:51:49.442Z,51.97
2023-05-09T02:52:12.099Z,51.89
2023-05-09T02:52:34.259Z,51.76
2023-05-09T02:52:55.975Z,51.89
2023-05-09T02:53:17.642Z,52.11
2023-05-09T02:53:40.345Z,51.71
2023-05-09T02:54:02.177Z,51.69
2023-05-09T02:54:23.989Z,51.82
2023-05-09T02:54:46.008Z,51.63
2023-05-09T02:55:09.558Z,52.16
2023-05-09T02:55:34.835Z,52.15
2023-05-09T02:55:56.571Z,51.88
2023-05-09T02:56:18.528Z,51.65
2023-05-09T02:56:40.192Z,51.86
2023-05-09T02:57:01.971Z,52.09
2023-05-09T02:57:23.689Z,51.90
2023-05-09T02:57:46.589Z,51.64
2023-05-09T02:58:14.203Z,51.78
2023-05-09T02:58:38.331Z,51.85
2023-05-09T02:58:59.954Z,51.82
2023-05-09T02:59:22.574Z,51.82
2023-05-09T02:59:44.587Z,51.41
2023-05-09T03:00:09.495Z,51.54
2023-05-09T03:00:31.213Z,51.52
2023-05-09T03:00:55.482Z,51.73
2023-05-09T03:01:17.954Z,51.79
2023-05-09T03:01:39.655Z,51.81
2023-05-09T03:02:03.462Z,51.81
2023-05-09T03:02:27.479Z,51.80
2023-05-09T03:02:49.640Z,51.82
2023-05-09T03:03:13.059Z,51.76
2023-05-09T03:03:38.040Z,51.89
2023-05-09T03:04:00.784Z,52.05
2023-05-09T03:04:25.784Z,52.12
2023-05-09T03:04:47.491Z,51.91
2023-05-09T03:05:09.599Z,51.80
2023-05-09T03:05:33.288Z,52.16
2023-05-09T03:05:55.099Z,51.68
2023-05-09T03:06:16.881Z,51.89
2023-05-09T03:06:40.610Z,51.91
2023-05-09T03:07:03.499Z,51.83
2023-05-09T03:07:27.852Z,51.77
2023-05-09T03:07:51.303Z,51.46
2023-05-09T03:08:13.096Z,51.63
2023-05-09T03:08:35.949Z,51.46
2023-05-09T03:08:59.121Z,51.42
2023-05-09T03:09:20.809Z,51.42
2023-05-09T03:09:42.452Z,51.32
2023-05-09T03:10:05.992Z,51.24
2023-05-09T03:10:27.757Z,51.49
2023-05-09T03:10:49.413Z,51.49
2023-05-09T03:11:11.396Z,51.42
2023-05-09T03:11:33.779Z,51.23
2023-05-09T03:11:57.155Z,51.37
2023-05-09T03:12:18.809Z,51.33
2023-05-09T03:12:40.549Z,51.56
2023-05-09T03:13:02.473Z,51.41
2023-05-09T03:13:27.445Z,51.59
2023-05-09T03:13:49.187Z,51.35
2023-05-09T03:14:12.769Z,51.54
2023-05-09T03:14:34.493Z,51.80
2023-05-09T03:14:57.711Z,51.43
2023-05-09T03:15:22.990Z,51.43
2023-05-09T03:15:44.719Z,51.76
2023-05-09T03:16:08.826Z,52.09
2023-05-09T03:16:31.686Z,51.93
2023-05-09T03:16:54.056Z,51.59
2023-05-09T03:17:26.397Z,51.61
2023-05-09T03:17:48.122Z,51.49
2023-05-09T03:18:10.006Z,51.52
2023-05-09T03:18:31.727Z,51.74
2023-05-09T03:19:02.262Z,51.80
2023-05-09T03:19:26.865Z,51.50
2023-05-09T03:19:49.459Z,51.91
2023-05-09T03:20:11.290Z,51.88
2023-05-09T03:20:35.802Z,51.85
2023-05-09T03:20:59.429Z,51.99
2023-05-09T03:21:24.185Z,51.70
2023-05-09T03:21:48.733Z,52.03
2023-05-09T03:22:15.998Z,52.11
2023-05-09T03:22:53.318Z,52.07
2023-05-09T03:23:15.955Z,52.20
2023-05-09T03:23:40.141Z,52.41
2023-05-09T03:24:07.875Z,52.42
2023-05-09T03:24:30.961Z,52.30
2023-05-09T03:24:53.280Z,52.13
2023-05-09T03:25:17.718Z,51.95
2023-05-09T03:25:40.109Z,51.95
2023-05-09T03:26:03.485Z,52.11
2023-05-09T03:26:26.548Z,52.03
2023-05-09T03:26:55.704Z,52.07
2023-05-09T03:27:20.160Z,52.29
2023-05-09T03:27:45.119Z,52.32
2023-05-09T03:28:11.435Z,51.96
2023-05-09T03:28:38.921Z,52.16
2023-05-09T03:29:15.074Z,52.12
2023-05-09T03:29:37.042Z,52.02
2023-05-09T03:30:01.226Z,52.24
2023-05-09T03:30:23.544Z,51.90
2023-05-09T03:30:46.124Z,51.82
2023-05-09T03:31:11.112Z,52.08
2023-05-09T03:31:34.145Z,51.87
2023-05-09T03:31:57.459Z,51.67
2023-05-09T03:32:19.060Z,51.83
2023-05-09T03:32:40.826Z,51.73
2023-05-09T03:33:04.794Z,52.17
2023-05-09T03:33:26.607Z,52.01
2023-05-09T03:33:49.655Z,52.07
2023-05-09T03:34:15.383Z,51.85
2023-05-09T03:34:39.491Z,51.94
2023-05-09T03:35:01.331Z,51.62
2023-05-09T03:35:23.398Z,52.10
2023-05-09T03:35:45.072Z,52.22
2023-05-09T03:36:08.646Z,52.07
2023-05-09T03:36:32.189Z,52.01
2023-05-09T03:36:54.659Z,52.12
2023-05-09T03:37:16.407Z,52.26
2023-05-09T03:37:43.659Z,52.40
2023-05-09T03:38:05.775Z,51.95
2023-05-09T03:38:27.592Z,51.99
2023-05-09T03:38:49.280Z,51.93
2023-05-09T03:39:13.041Z,51.96
2023-05-09T03:39:37.514Z,52.04
2023-05-09T03:39:59.455Z,52.26
2023-05-09T03:40:22.018Z,52.21
2023-05-09T03:40:51.369Z,52.08
2023-05-09T03:41:15.428Z,52.28
2023-05-09T03:41:38.179Z,52.10
2023-05-09T03:42:01.022Z,52.27
2023-05-09T03:42:26.090Z,52.17
2023-05-09T03:42:51.733Z,52.12
2023-05-09T03:43:13.395Z,52.24
2023-05-09T03:43:35.791Z,52.25
2023-05-09T03:43:58.441Z,52.23
2023-05-09T03:44:20.484Z,51.96
2023-05-09T03:44:43.521Z,51.96
2023-05-09T03:45:05.932Z,51.85
2023-05-09T03:45:27.591Z,52.08
2023-05-09T03:45:50.813Z,52.19
2023-05-09T03:46:14.710Z,52.07
2023-05-09T03:46:39.382Z,51.93
2023-05-09T03:47:01.378Z,52.11
2023-05-09T03:47:29.739Z,51.96
2023-05-09T03:47:52.280Z,52.27
2023-05-09T03:48:14.021Z,52.12
2023-05-09T03:48:44.198Z,52.10
2023-05-09T03:49:09.199Z,52.09
2023-05-09T03:49:32.858Z,52.18
2023-05-09T03:49:54.651Z,52.51
2023-05-09T03:50:18.992Z,52.42
2023-05-09T03:50:41.061Z,52.33
2023-05-09T03:51:03.592Z,52.19
2023-05-09T03:51:28.030Z,52.40
2023-05-09T03:51:53.181Z,52.41
2023-05-09T03:52:14.799Z,52.24
2023-05-09T03:52:37.285Z,52.36
2023-05-09T03:52:59.122Z,52.35
2023-05-09T03:53:21.836Z,52.14
2023-05-09T03:53:46.982Z,52.13
2023-05-09T03:54:09.579Z,52.33
2023-05-09T03:54:33.009Z,52.03
2023-05-09T03:54:56.228Z,52.06
2023-05-09T03:55:18.524Z,51.92
2023-05-09T03:55:40.851Z,51.90
2023-05-09T03:56:04.494Z,52.12
2023-05-09T03:56:29.873Z,52.24
2023-05-09T03:56:52.120Z,52.14
2023-05-09T03:57:13.837Z,52.23
2023-05-09T03:57:35.880Z,52.14
2023-05-09T03:57:58.908Z,52.02
2023-05-09T03:58:20.704Z,52.05
2023-05-09T03:58:42.849Z,52.07
2023-05-09T03:59:05.440Z,52.00
2023-05-09T03:59:29.273Z,52.07
2023-05-09T03:59:51.310Z,52.10
2023-05-09T04:00:13.750Z,52.10
2023-05-09T04:00:46.492Z,52.08
2023-05-09T04:01:17.226Z,52.14
2023-05-09T04:01:40.496Z,52.00
2023-05-09T04:02:04.256Z,52.10
2023-05-09T04:02:26.363Z,51.76
2023-05-09T04:02:49.402Z,51.98
2023-05-09T04:03:19.868Z,51.93
2023-05-09T04:03:46.878Z,51.96
2023-05-09T04:04:10.922Z,52.06
2023-05-09T04:04:35.367Z,51.95
2023-05-09T04:04:57.336Z,51.92
2023-05-09T04:05:19.304Z,51.83
2023-05-09T04:05:42.350Z,51.96
2023-05-09T04:06:11.246Z,52.19
2023-05-09T04:06:37.835Z,52.03
2023-05-09T04:07:02.939Z,51.85
2023-05-09T04:07:25.251Z,51.73
2023-05-09T04:07:46.957Z,52.03
2023-05-09T04:08:09.486Z,51.65
2023-05-09T04:08:34.066Z,51.95
2023-05-09T04:08:57.559Z,51.76
2023-05-09T04:09:19.406Z,51.84
2023-05-09T04:09:42.842Z,51.92
2023-05-09T04:10:06.259Z,51.96
2023-05-09T04:10:28.222Z,51.75
2023-05-09T04:10:50.956Z,51.83
2023-05-09T04:11:12.557Z,51.85
2023-05-09T04:11:37.526Z,51.81
2023-05-09T04:12:05.720Z,51.93
2023-05-09T04:12:28.097Z,51.96
2023-05-09T04:12:49.827Z,51.86
2023-05-09T04:13:12.560Z,51.60
2023-05-09T04:13:34.701Z,52.00
2023-05-09T04:14:07.115Z,51.88
2023-05-09T04:14:30.744Z,52.06
2023-05-09T04:14:52.647Z,52.06
2023-05-09T04:15:15.561Z,51.92
2023-05-09T04:15:38.517Z,51.77
2023-05-09T04:16:01.553Z,51.55
2023-05-09T04:16:26.509Z,51.96
2023-05-09T04:16:50.087Z,51.84
2023-05-09T04:17:12.809Z,51.83
2023-05-09T04:17:34.484Z,51.86
2023-05-09T04:17:56.138Z,51.53
2023-05-09T04:18:18.146Z,51.82
2023-05-09T04:18:42.254Z,51.65
2023-05-09T04:19:04.230Z,51.78
2023-05-09T04:19:26.004Z,51.89
2023-05-09T04:19:48.023Z,51.92
2023-05-09T04:20:12.762Z,51.90
2023-05-09T04:20:34.926Z,52.18
2023-05-09T04:20:56.779Z,52.16
2023-05-09T04:21:18.755Z,52.11
2023-05-09T04:21:44.595Z,52.09
2023-05-09T04:22:06.269Z,52.02
2023-05-09T04:22:28.022Z,51.86
2023-05-09T04:22:50.230Z,52.16
2023-05-09T04:23:13.786Z,51.91
2023-05-09T04:23:36.619Z,52.20
2023-05-09T04:23:58.597Z,51.78
2023-05-09T04:24:34.035Z,51.95
2023-05-09T04:24:57.826Z,52.05
2023-05-09T04:25:20.197Z,51.98
2023-05-09T04:25:42.900Z,51.74
2023-05-09T04:26:04.811Z,51.81
2023-05-09T04:26:27.416Z,51.81
2023-05-09T04:26:51.392Z,52.00
2023-05-09T04:27:17.635Z,51.70
2023-05-09T04:27:39.424Z,51.70
2023-05-09T04:28:02.348Z,51.97
2023-05-09T04:28:24.187Z,51.73
2023-05-09T04:28:46.170Z,51.96
2023-05-09T04:29:12.953Z,51.84
2023-05-09T04:29:36.599Z,51.90
2023-05-09T04:29:58.384Z,51.88
2023-05-09T04:30:23.295Z,52.14
2023-05-09T04:30:45.786Z,51.97
2023-05-09T04:31:12.952Z,52.18
2023-05-09T04:31:38.112Z,52.17
2023-05-09T04:32:03.702Z,52.15
2023-05-09T04:32:28.916Z,52.11
2023-05-09T04:32:53.574Z,52.18
2023-05-09T04:33:21.616Z,52.12
2023-05-09T04:33:45.725Z,52.40
2023-05-09T04:34:09.734Z,51.94
2023-05-09T04:34:35.034Z,52.20
2023-05-09T04:35:08.413Z,51.96
2023-05-09T04:35:35.280Z,52.12
2023-05-09T04:36:02.223Z,51.92
2023-05-09T04:36:26.073Z,52.20
2023-05-09T04:36:48.287Z,52.23
2023-05-09T04:37:16.147Z,51.90
2023-05-09T04:37:45.713Z,52.08
2023-05-09T04:38:08.242Z,52.10
2023-05-09T04:38:33.274Z,51.79
2023-05-09T04:38:56.233Z,52.14
2023-05-09T04:39:22.816Z,52.20
2023-05-09T04:39:59.168Z,52.05
2023-05-09T04:40:30.231Z,52.00
2023-05-09T04:40:58.999Z,51.97
2023-05-09T04:41:22.935Z,52.06
2023-05-09T04:41:47.858Z,52.01
2023-05-09T04:42:11.592Z,52.07
2023-05-09T04:42:35.968Z,52.14
2023-05-09T04:42:57.760Z,51.91
2023-05-09T04:43:22.329Z,52.15
2023-05-09T04:43:44.034Z,52.16
2023-05-09T04:44:08.441Z,52.12
2023-05-09T04:44:30.183Z,51.86
2023-05-09T04:44:55.969Z,51.79
2023-05-09T04:45:17.855Z,51.85
2023-05-09T04:45:41.497Z,51.79
2023-05-09T04:46:03.385Z,51.75
2023-05-09T04:46:27.050Z,52.11
2023-05-09T04:46:50.961Z,52.09
2023-05-09T04:47:14.582Z,51.92
2023-05-09T04:47:38.652Z,52.07
2023-05-09T04:48:00.766Z,52.06
2023-05-09T04:48:22.495Z,51.83
2023-05-09T04:48:45.002Z,51.74
2023-05-09T04:49:07.933Z,52.11
2023-05-09T04:49:31.502Z,51.86
2023-05-09T04:49:53.574Z,51.93
2023-05-09T04:50:16.444Z,51.86
2023-05-09T04:50:39.078Z,52.03
2023-05-09T04:51:02.100Z,52.15
2023-05-09T04:51:23.687Z,52.11
2023-05-09T04:51:46.110Z,52.39
2023-05-09T04:52:08.709Z,52.05
2023-05-09T04:52:30.400Z,52.32
2023-05-09T04:52:52.495Z,52.25
2023-05-09T04:53:15.042Z,52.25
2023-05-09T04:53:39.097Z,52.16
2023-05-09T04:54:01.420Z,51.81
2023-05-09T04:54:27.976Z,52.17
2023-05-09T04:54:49.778Z,51.99
2023-05-09T04:55:15.236Z,52.07
2023-05-09T04:55:40.264Z,52.34
2023-05-09T04:56:02.805Z,52.23
2023-05-09T04:56:25.495Z,52.23
2023-05-09T04:56:50.028Z,52.03
2023-05-09T04:57:17.964Z,51.92
2023-05-09T04:57:43.264Z,51.91
2023-05-09T04:58:06.059Z,52.10
2023-05-09T04:58:27.660Z,51.98
2023-05-09T04:58:52.724Z,51.72
2023-05-09T04:59:14.422Z,52.12
2023-05-09T04:59:36.571Z,51.96
2023-05-09T04:59:58.425Z,51.81
2023-05-09T05:00:21.567Z,51.82
2023-05-09T05:00:44.154Z,51.64
2023-05-09T05:01:06.751Z,51.73
2023-05-09T05:01:28.504Z,51.93
2023-05-09T05:01:52.852Z,51.84
2023-05-09T05:02:17.099Z,52.19
2023-05-09T05:02:39.139Z,52.00
2023-05-09T05:03:01.115Z,51.62
2023-05-09T05:03:24.756Z,51.85
2023-05-09T05:03:47.473Z,51.97
2023-05-09T05:04:10.057Z,51.66
2023-05-09T05:04:31.833Z,51.97
2023-05-09T05:05:03.032Z,51.73
2023-05-09T05:05:37.235Z,51.56
2023-05-09T05:05:59.461Z,51.64
2023-05-09T05:06:21.230Z,51.78
2023-05-09T05:06:42.895Z,51.71
2023-05-09T05:07:06.125Z,51.77
2023-05-09T05:07:27.954Z,51.53
2023-05-09T05:07:49.584Z,51.69
2023-05-09T05:08:16.012Z,51.72
2023-05-09T05:08:39.149Z,51.64
2023-05-09T05:09:01.150Z,52.03
2023-05-09T05:09:22.927Z,52.00
2023-05-09T05:09:46.016Z,52.09
2023-05-09T05:10:10.049Z,52.11
2023-05-09T05:10:33.484Z,52.18
2023-05-09T05:11:02.553Z,52.00
2023-05-09T05:11:24.580Z,52.04
2023-05-09T05:11:58.399Z,52.20
2023-05-09T05:12:22.764Z,52.06
2023-05-09T05:12:44.580Z,52.13
2023-05-09T05:13:09.250Z,52.08
2023-05-09T05:13:34.440Z,51.96
2023-05-09T05:13:58.606Z,52.17